Terminal Aerodrome Forecast
Issued by NWS

Current Version | Previous Version | Graphics & Text | Print | Product List | Glossary On
Versions: 1 2 3 4 5 6 7 8 9 10 11 12 13 14 15 16 17 18 19
744
FTUS41 KRLX 071720
TAFCKB
TAF
KCKB 071720Z 0718/0818 24005KT P6SM SCT250
     FM080800 VRB03KT P6SM BKN040
     FM081400 19005KT 3SM -SHSN BR OVC025
     FM081600 21006KT 5SM -SHRASN BR OVC015=

USA.gov is the U.S. government's official web portal to all federal, state and local government web resources and services.